Weather at Powell Valley Airport [CLOSED]

Public forecast

Using degrees Fahrenheit for public forecast. Weather courtesy of forecast.io.

Closest aviation weather report (METAR) to Powell Valley Airport

Closest report is Lonesome Pine Airport, 11.9 nm (22.1 km) NE. Retrieved 2021/06/13 18:15 UTC (0 seconds ago):

KLNP 131815Z AUTO 00000KT 10SM CLR 27/17 A3004 RMK AO2

Closest aviation forecast (TAF) to Powell Valley Airport

Closest forecast is Tri-Cities Regional TN/VA Airport, 27.3 nm (50.6 km) SSE. Retrieved 2021/06/13 18:30 UTC (0 seconds ago):

TAF KTRI 131727Z 1318/1418 28003KT P6SM SCT040 FM132300 29004KT P6SM VCTS BKN050CB FM140400 00000KT P6SM SCT045 FM140800 00000KT 5SM BR BKN250 FM141000 00000KT 3SM BR OVC003 FM141300 30005KT P6SM SCT050